createdAt,value
2022-12-01T00:02:08.333Z,24.21
2022-12-01T00:04:38.855Z,24.22
2022-12-01T00:07:09.084Z,24.22
2022-12-01T00:09:56.006Z,24.21
2022-12-01T00:12:28.618Z,24.19
2022-12-01T00:15:02.670Z,24.19
2022-12-01T00:17:33.248Z,24.18
2022-12-01T00:20:03.249Z,24.18
2022-12-01T00:22:33.819Z,24.17
2022-12-01T00:25:03.773Z,24.17
2022-12-01T00:27:35.214Z,24.17
2022-12-01T00:30:05.431Z,24.17
2022-12-01T00:32:35.365Z,24.17
2022-12-01T00:35:07.551Z,24.16
2022-12-01T00:37:39.084Z,24.17
2022-12-01T00:40:11.875Z,24.16
2022-12-01T00:42:43.519Z,24.16
2022-12-01T00:45:14.615Z,24.14
2022-12-01T00:47:45.204Z,24.13
2022-12-01T00:50:15.335Z,24.12
2022-12-01T00:52:45.863Z,24.10
2022-12-01T00:55:16.591Z,24.09
2022-12-01T00:57:49.470Z,24.05
2022-12-01T01:00:21.288Z,24.04
2022-12-01T01:02:51.912Z,24.01
2022-12-01T01:05:22.223Z,24.01
2022-12-01T01:07:52.606Z,24.00
2022-12-01T01:10:23.148Z,24.00
2022-12-01T01:12:55.176Z,23.98
2022-12-01T01:15:25.223Z,23.97
2022-12-01T01:17:55.583Z,23.96
2022-12-01T01:20:26.233Z,23.94
2022-12-01T01:22:56.987Z,23.91
2022-12-01T01:25:27.159Z,23.90
2022-12-01T01:27:58.561Z,23.90
2022-12-01T01:30:29.290Z,23.87
2022-12-01T01:32:59.852Z,23.89
2022-12-01T01:35:30.463Z,23.89
2022-12-01T01:38:00.565Z,23.86
2022-12-01T01:40:31.305Z,23.84
2022-12-01T01:43:03.470Z,23.83
2022-12-01T01:45:34.505Z,23.78
2022-12-01T01:48:05.334Z,23.73
2022-12-01T01:50:35.634Z,23.69
2022-12-01T01:53:12.944Z,23.66
2022-12-01T01:55:44.041Z,23.64
2022-12-01T01:58:16.113Z,23.63
2022-12-01T02:00:48.427Z,23.63
2022-12-01T02:03:21.884Z,23.63
2022-12-01T02:06:00.514Z,23.64
2022-12-01T02:08:36.563Z,23.65
2022-12-01T02:11:36.514Z,23.65
2022-12-01T02:14:42.224Z,23.63
2022-12-01T02:17:35.291Z,23.61
2022-12-01T02:20:48.231Z,23.59
2022-12-01T02:24:10.815Z,23.55
2022-12-01T02:26:53.018Z,23.51
2022-12-01T02:30:07.477Z,23.46
2022-12-01T02:33:03.062Z,23.45
2022-12-01T02:35:46.692Z,23.44
2022-12-01T02:38:27.539Z,23.45
2022-12-01T02:41:17.301Z,23.44
2022-12-01T02:43:56.249Z,23.45
2022-12-01T02:46:35.003Z,23.45
2022-12-01T02:49:15.520Z,23.47
2022-12-01T02:51:47.936Z,23.48
2022-12-01T02:54:19.659Z,23.48
2022-12-01T02:56:54.734Z,23.50
2022-12-01T02:59:25.229Z,23.51
2022-12-01T03:02:10.936Z,23.52
2022-12-01T03:05:07.376Z,23.52
2022-12-01T03:07:59.935Z,23.52
2022-12-01T03:10:45.528Z,23.51
2022-12-01T03:13:39.967Z,23.51
2022-12-01T03:16:15.790Z,23.48
2022-12-01T03:18:57.518Z,23.45
2022-12-01T03:21:38.044Z,23.39
2022-12-01T03:24:19.686Z,23.35
2022-12-01T03:26:57.775Z,23.32
2022-12-01T03:29:34.899Z,23.32
2022-12-01T03:32:13.303Z,23.32
2022-12-01T03:34:51.709Z,23.32
2022-12-01T03:37:33.131Z,23.31
2022-12-01T03:40:07.656Z,23.32
2022-12-01T03:42:43.562Z,23.33
2022-12-01T03:45:21.147Z,23.34
2022-12-01T03:47:52.134Z,23.34
2022-12-01T03:50:23.083Z,23.34
2022-12-01T03:53:09.408Z,23.34
2022-12-01T03:55:47.224Z,23.32
2022-12-01T03:58:33.841Z,23.32
2022-12-01T04:01:07.554Z,23.31
2022-12-01T04:03:38.900Z,23.30
2022-12-01T04:06:09.869Z,23.29
2022-12-01T04:08:42.799Z,23.26
2022-12-01T04:11:32.847Z,23.23
2022-12-01T04:14:04.138Z,23.19
2022-12-01T04:16:34.811Z,23.18
2022-12-01T04:19:05.328Z,23.18
2022-12-01T04:21:36.134Z,23.18
2022-12-01T04:24:09.176Z,23.17
2022-12-01T04:26:40.895Z,23.15
2022-12-01T04:29:14.715Z,23.16
2022-12-01T04:31:45.305Z,23.16
2022-12-01T04:34:15.867Z,23.16
2022-12-01T04:36:47.092Z,23.17
2022-12-01T04:39:20.310Z,23.17
2022-12-01T04:41:51.235Z,23.17
2022-12-01T04:44:22.212Z,23.15
2022-12-01T04:46:54.965Z,23.15
2022-12-01T04:49:25.934Z,23.15
2022-12-01T04:51:56.501Z,23.16
2022-12-01T04:54:29.516Z,23.17
2022-12-01T04:57:00.180Z,23.17
2022-12-01T04:59:30.800Z,23.17
2022-12-01T05:02:03.145Z,23.17
2022-12-01T05:04:34.621Z,23.17
2022-12-01T05:07:05.085Z,23.18
2022-12-01T05:09:40.080Z,23.17
2022-12-01T05:12:11.063Z,23.18
2022-12-01T05:14:41.315Z,23.19
2022-12-01T05:17:11.694Z,23.21
2022-12-01T05:20:00.933Z,23.22
2022-12-01T05:22:57.250Z,23.24
2022-12-01T05:25:23.156Z,23.25
2022-12-01T05:27:53.687Z,23.28
2022-12-01T05:30:28.351Z,23.30
2022-12-01T05:32:59.653Z,23.32
2022-12-01T05:35:30.207Z,23.35
2022-12-01T05:38:06.069Z,23.37
2022-12-01T05:40:40.595Z,23.39
2022-12-01T05:43:11.307Z,23.40
2022-12-01T05:45:41.872Z,23.41
2022-12-01T05:48:12.730Z,23.43
2022-12-01T05:50:43.189Z,23.45
2022-12-01T05:53:16.819Z,23.48
2022-12-01T05:55:49.118Z,23.55
2022-12-01T05:58:19.593Z,23.65
2022-12-01T06:00:50.582Z,23.81
2022-12-01T06:03:20.991Z,24.04
2022-12-01T06:05:51.138Z,24.30
2022-12-01T06:08:21.739Z,24.59
2022-12-01T06:10:54.812Z,24.90
2022-12-01T06:13:25.921Z,25.21
2022-12-01T06:16:01.421Z,25.51
2022-12-01T06:18:36.199Z,25.81
2022-12-01T06:21:18.174Z,26.11
2022-12-01T06:23:47.773Z,26.43
2022-12-01T06:26:19.932Z,26.74
2022-12-01T06:28:49.912Z,27.02
2022-12-01T06:31:20.776Z,27.29
2022-12-01T06:33:51.213Z,27.55
2022-12-01T06:36:21.777Z,27.79
2022-12-01T06:38:52.338Z,28.00
2022-12-01T06:41:24.813Z,28.23
2022-12-01T06:43:55.777Z,28.40
2022-12-01T06:46:26.520Z,28.58
2022-12-01T06:48:57.046Z,28.77
2022-12-01T06:51:36.250Z,29.00
2022-12-01T06:54:06.896Z,29.25
2022-12-01T06:56:39.473Z,29.47
2022-12-01T06:59:10.785Z,29.71
2022-12-01T07:01:41.441Z,29.96
2022-12-01T07:04:11.944Z,30.20
2022-12-01T07:06:42.660Z,30.43
2022-12-01T07:09:13.403Z,30.65
2022-12-01T07:11:46.040Z,30.89
2022-12-01T07:14:27.555Z,31.12
2022-12-01T07:16:58.177Z,31.32
2022-12-01T07:19:28.958Z,31.49
2022-12-01T07:22:05.423Z,31.68
2022-12-01T07:24:36.836Z,31.85
2022-12-01T07:27:09.518Z,32.05
2022-12-01T07:29:39.473Z,32.25
2022-12-01T07:32:09.434Z,32.45
2022-12-01T07:34:40.095Z,32.67
2022-12-01T07:37:10.651Z,32.88
2022-12-01T07:39:40.785Z,33.10
2022-12-01T07:42:12.777Z,33.30
2022-12-01T07:44:43.250Z,33.50
2022-12-01T07:47:17.273Z,33.72
2022-12-01T07:49:47.790Z,33.95
2022-12-01T07:52:18.338Z,34.17
2022-12-01T07:54:48.812Z,34.43
2022-12-01T07:57:20.908Z,34.70
2022-12-01T07:59:51.354Z,34.97
2022-12-01T08:02:21.577Z,35.28
2022-12-01T08:04:51.589Z,35.59
2022-12-01T08:07:26.005Z,35.91
2022-12-01T08:09:58.499Z,36.26
2022-12-01T08:12:31.036Z,36.64
2022-12-01T08:15:01.318Z,36.98
2022-12-01T08:17:31.806Z,37.33
2022-12-01T08:20:02.335Z,37.70
2022-12-01T08:22:32.785Z,38.07
2022-12-01T08:25:03.465Z,38.44
2022-12-01T08:27:35.698Z,38.83
2022-12-01T08:30:06.273Z,39.21
2022-12-01T08:32:36.485Z,39.55
2022-12-01T08:35:07.326Z,39.84
2022-12-01T08:37:37.728Z,39.92
2022-12-01T08:40:10.544Z,39.76
2022-12-01T08:42:42.437Z,39.46
2022-12-01T08:45:14.591Z,39.09
2022-12-01T08:47:45.639Z,38.69
2022-12-01T08:50:16.305Z,38.31
2022-12-01T08:52:47.050Z,37.93
2022-12-01T08:55:17.492Z,37.58
2022-12-01T08:57:49.706Z,37.24
2022-12-01T09:00:19.811Z,36.89
2022-12-01T09:02:50.756Z,36.59
2022-12-01T09:05:21.008Z,36.27
2022-12-01T09:08:12.103Z,35.98
2022-12-01T09:10:42.765Z,35.66
2022-12-01T09:13:15.740Z,35.37
2022-12-01T09:15:45.907Z,35.11
2022-12-01T09:18:15.677Z,34.92
2022-12-01T09:20:46.291Z,34.77
2022-12-01T09:23:16.316Z,34.65
2022-12-01T09:25:46.938Z,34.53
2022-12-01T09:28:20.909Z,34.47
2022-12-01T09:30:53.756Z,34.37
2022-12-01T09:33:24.257Z,34.25
2022-12-01T09:35:55.250Z,34.11
2022-12-01T09:38:25.226Z,33.97
2022-12-01T09:40:56.742Z,33.83
2022-12-01T09:43:43.227Z,33.64
2022-12-01T09:46:22.083Z,33.44
2022-12-01T09:48:54.582Z,33.24
2022-12-01T09:51:28.587Z,33.06
2022-12-01T09:54:02.993Z,32.87
2022-12-01T09:56:41.717Z,32.70
2022-12-01T09:59:23.957Z,32.53
2022-12-01T10:02:00.207Z,32.35
2022-12-01T10:04:38.456Z,32.17
2022-12-01T10:07:19.767Z,32.01
2022-12-01T10:09:57.953Z,31.86
2022-12-01T10:12:32.662Z,31.72
2022-12-01T10:15:32.835Z,31.59
2022-12-01T10:18:23.253Z,31.44
2022-12-01T10:21:04.534Z,31.30
2022-12-01T10:24:16.636Z,31.11
2022-12-01T10:26:58.248Z,30.98
2022-12-01T10:29:47.416Z,30.85
2022-12-01T10:32:23.107Z,30.75
2022-12-01T10:34:53.599Z,30.65
2022-12-01T10:37:30.155Z,30.58
2022-12-01T10:40:02.464Z,30.51
2022-12-01T10:42:39.769Z,30.46
2022-12-01T10:45:17.347Z,30.41
2022-12-01T10:48:16.612Z,30.31
2022-12-01T10:50:50.352Z,30.25
2022-12-01T10:53:32.886Z,30.19
2022-12-01T10:56:13.389Z,30.11
2022-12-01T10:58:51.776Z,30.03
2022-12-01T11:01:27.602Z,29.94
2022-12-01T11:04:07.180Z,29.85
2022-12-01T11:06:40.139Z,29.78
2022-12-01T11:09:41.379Z,29.73
2022-12-01T11:12:20.998Z,29.63
2022-12-01T11:14:56.428Z,29.58
2022-12-01T11:17:34.356Z,29.54
2022-12-01T11:20:34.779Z,29.50
2022-12-01T11:23:39.160Z,29.41
2022-12-01T11:26:16.894Z,29.35
2022-12-01T11:29:02.666Z,29.29
2022-12-01T11:31:44.049Z,29.24
2022-12-01T11:34:26.146Z,29.20
2022-12-01T11:37:02.416Z,29.13
2022-12-01T11:39:37.971Z,29.08
2022-12-01T11:42:23.293Z,29.03
2022-12-01T11:44:57.967Z,28.96
2022-12-01T11:47:30.470Z,28.90
2022-12-01T11:50:03.410Z,28.84
2022-12-01T11:52:47.541Z,28.82
2022-12-01T11:55:25.498Z,28.80
2022-12-01T11:58:00.731Z,28.76
2022-12-01T12:00:39.373Z,28.73
2022-12-01T12:03:27.955Z,28.72
2022-12-01T12:06:40.741Z,28.68
2022-12-01T12:09:53.625Z,28.61
2022-12-01T12:12:42.038Z,28.60
2022-12-01T12:15:32.666Z,28.57
2022-12-01T12:18:34.491Z,28.52
2022-12-01T12:21:22.109Z,28.50
2022-12-01T12:24:39.982Z,28.46
2022-12-01T12:27:29.722Z,28.42
2022-12-01T12:30:23.230Z,28.42
2022-12-01T12:33:50.782Z,28.38
2022-12-01T12:36:38.714Z,28.36
2022-12-01T12:39:31.841Z,28.33
2022-12-01T12:42:09.373Z,28.31
2022-12-01T12:44:54.255Z,28.29
2022-12-01T12:48:03.737Z,28.23
2022-12-01T12:50:49.641Z,28.19
2022-12-01T12:53:31.960Z,28.17
2022-12-01T12:56:11.497Z,28.13
2022-12-01T12:58:52.973Z,28.10
2022-12-01T13:01:34.768Z,28.09
2022-12-01T13:04:17.213Z,28.07
2022-12-01T13:07:00.594Z,28.04
2022-12-01T13:09:40.334Z,28.03
2022-12-01T13:12:17.156Z,28.02
2022-12-01T13:15:01.269Z,27.99
2022-12-01T13:17:42.924Z,27.95
2022-12-01T13:20:19.810Z,27.94
2022-12-01T13:22:53.192Z,27.94
2022-12-01T13:25:31.283Z,27.93
2022-12-01T13:28:09.858Z,27.92
2022-12-01T13:30:41.747Z,27.90
2022-12-01T13:33:23.118Z,27.91
2022-12-01T13:36:30.037Z,27.91
2022-12-01T13:39:02.783Z,27.90
2022-12-01T13:41:40.120Z,27.88
2022-12-01T13:44:25.236Z,27.86
2022-12-01T13:47:06.362Z,27.84
2022-12-01T13:49:47.482Z,27.85
2022-12-01T13:52:37.116Z,27.84
2022-12-01T13:55:36.998Z,27.84
2022-12-01T13:58:45.195Z,27.84
2022-12-01T14:01:50.005Z,27.82
2022-12-01T14:04:38.506Z,27.81
2022-12-01T14:07:39.914Z,27.82
2022-12-01T14:10:35.094Z,27.79
2022-12-01T14:13:11.512Z,27.79
2022-12-01T14:15:47.875Z,27.80
2022-12-01T14:18:37.930Z,27.80
2022-12-01T14:21:15.606Z,27.78
2022-12-01T14:24:12.604Z,27.79
2022-12-01T14:26:50.040Z,27.78
2022-12-01T14:29:40.571Z,27.77
2022-12-01T14:32:29.981Z,27.77
2022-12-01T14:35:17.260Z,27.76
2022-12-01T14:37:52.925Z,27.75
2022-12-01T14:40:33.619Z,27.75
2022-12-01T14:43:39.260Z,27.73
2022-12-01T14:46:16.152Z,27.70
2022-12-01T14:48:49.533Z,27.68
2022-12-01T14:51:31.172Z,27.67
2022-12-01T14:54:10.521Z,27.65
2022-12-01T14:56:49.315Z,27.65
2022-12-01T14:59:27.132Z,27.63
2022-12-01T15:02:09.502Z,27.61
2022-12-01T15:05:12.643Z,27.57
2022-12-01T15:07:46.115Z,27.56
2022-12-01T15:10:22.720Z,27.55
2022-12-01T15:12:57.452Z,27.53
2022-12-01T15:15:29.950Z,27.52
2022-12-01T15:18:09.831Z,27.50
2022-12-01T15:20:47.595Z,27.49
2022-12-01T15:23:19.605Z,27.48
2022-12-01T15:25:50.277Z,27.46
2022-12-01T15:28:24.058Z,27.46
2022-12-01T15:30:57.478Z,27.44
2022-12-01T15:33:37.147Z,27.43
2022-12-01T15:36:09.536Z,27.40
2022-12-01T15:38:42.939Z,27.38
2022-12-01T15:41:30.249Z,27.36
2022-12-01T15:44:05.797Z,27.35
2022-12-01T15:46:36.607Z,27.35
2022-12-01T15:49:18.877Z,27.33
2022-12-01T15:51:54.720Z,27.32
2022-12-01T15:54:29.810Z,27.31
2022-12-01T15:57:03.530Z,27.30
2022-12-01T15:59:44.420Z,27.29
2022-12-01T16:02:34.673Z,27.27
2022-12-01T16:05:20.204Z,27.25
2022-12-01T16:10:44.116Z,27.20
2022-12-01T16:13:46.434Z,27.18
2022-12-01T16:16:44.299Z,27.16
2022-12-01T16:19:35.201Z,27.13
2022-12-01T16:22:19.213Z,27.11
2022-12-01T16:24:54.399Z,27.09
2022-12-01T16:27:30.725Z,27.09
2022-12-01T16:30:07.993Z,27.09
2022-12-01T16:32:46.897Z,27.07
2022-12-01T16:35:29.860Z,27.05
2022-12-01T16:38:02.544Z,27.04
2022-12-01T16:40:34.378Z,27.04
2022-12-01T16:43:06.386Z,27.01
2022-12-01T16:45:37.902Z,27.00
2022-12-01T16:48:13.382Z,26.99
2022-12-01T16:50:46.683Z,26.98
2022-12-01T16:53:20.849Z,26.98
2022-12-01T16:55:59.026Z,26.96
2022-12-01T16:58:30.845Z,26.97
2022-12-01T17:01:03.310Z,26.95
2022-12-01T17:03:40.082Z,26.94
2022-12-01T17:06:15.937Z,26.92
2022-12-01T17:08:48.707Z,26.92
2022-12-01T17:11:22.977Z,26.91
2022-12-01T17:13:56.342Z,26.89
2022-12-01T17:16:29.170Z,26.88
2022-12-01T17:19:06.139Z,26.87
2022-12-01T17:21:39.034Z,26.85
2022-12-01T17:24:14.979Z,26.85
2022-12-01T17:26:48.644Z,26.83
2022-12-01T17:29:21.171Z,26.84
2022-12-01T17:31:54.399Z,26.83
2022-12-01T17:34:28.710Z,26.81
2022-12-01T17:37:01.710Z,26.80
2022-12-01T17:39:32.930Z,26.78
2022-12-01T17:42:04.658Z,26.76
2022-12-01T17:44:37.205Z,26.76
2022-12-01T17:47:09.229Z,26.76
2022-12-01T17:49:46.084Z,26.75
2022-12-01T17:52:18.983Z,26.73
2022-12-01T17:54:51.392Z,26.72
2022-12-01T17:57:23.267Z,26.71
2022-12-01T17:59:53.885Z,26.70
2022-12-01T18:02:24.654Z,26.68
2022-12-01T18:04:57.412Z,26.68
2022-12-01T18:07:27.931Z,26.67
2022-12-01T18:09:58.589Z,26.65
2022-12-01T18:12:28.694Z,26.64
2022-12-01T18:14:58.483Z,26.63
2022-12-01T18:17:30.152Z,26.61
2022-12-01T18:20:02.987Z,26.61
2022-12-01T18:22:33.422Z,26.59
2022-12-01T18:25:03.669Z,26.58
2022-12-01T18:27:35.087Z,26.56
2022-12-01T18:30:09.180Z,26.55
2022-12-01T18:32:41.706Z,26.53
2022-12-01T18:35:26.248Z,26.53
2022-12-01T18:37:59.885Z,26.52
2022-12-01T18:40:32.212Z,26.52
2022-12-01T18:43:02.046Z,26.51
2022-12-01T18:45:33.402Z,26.50
2022-12-01T18:48:03.720Z,26.50
2022-12-01T18:50:37.101Z,26.48
2022-12-01T18:53:07.508Z,26.45
2022-12-01T18:55:41.309Z,26.44
2022-12-01T18:58:13.181Z,26.43
2022-12-01T19:00:46.385Z,26.42
2022-12-01T19:03:18.144Z,26.40
2022-12-01T19:05:50.140Z,26.39
2022-12-01T19:08:23.701Z,26.38
2022-12-01T19:11:02.650Z,26.37
2022-12-01T19:13:35.264Z,26.34
2022-12-01T19:16:11.082Z,26.34
2022-12-01T19:18:42.758Z,26.30
2022-12-01T19:21:18.184Z,26.30
2022-12-01T19:23:50.802Z,26.28
2022-12-01T19:26:26.595Z,26.27
2022-12-01T19:29:00.078Z,26.24
2022-12-01T19:31:30.969Z,26.23
2022-12-01T19:34:02.433Z,26.18
2022-12-01T19:36:36.468Z,26.15
2022-12-01T19:39:08.627Z,26.13
2022-12-01T19:41:39.388Z,26.10
2022-12-01T19:44:13.114Z,26.10
2022-12-01T19:46:46.120Z,26.09
2022-12-01T19:49:18.700Z,26.08
2022-12-01T19:51:53.698Z,26.06
2022-12-01T19:54:26.524Z,26.06
2022-12-01T19:56:57.994Z,26.06
2022-12-01T19:59:29.905Z,26.05
2022-12-01T20:02:03.989Z,26.03
2022-12-01T20:04:37.252Z,26.02
2022-12-01T20:07:10.135Z,26.01
2022-12-01T20:09:46.958Z,25.99
2022-12-01T20:12:20.564Z,25.98
2022-12-01T20:14:50.913Z,25.97
2022-12-01T20:17:21.902Z,25.96
2022-12-01T20:19:53.315Z,25.95
2022-12-01T20:22:26.380Z,25.95
2022-12-01T20:24:57.361Z,25.93
2022-12-01T20:27:30.033Z,25.92
2022-12-01T20:30:02.198Z,25.90
2022-12-01T20:32:35.282Z,25.88
2022-12-01T20:35:06.992Z,25.88
2022-12-01T20:37:41.295Z,25.86
2022-12-01T20:40:15.464Z,25.84
2022-12-01T20:42:46.165Z,25.82
2022-12-01T20:45:17.588Z,25.80
2022-12-01T20:47:48.213Z,25.79
2022-12-01T20:50:18.729Z,25.77
2022-12-01T20:52:51.868Z,25.76
2022-12-01T20:55:24.920Z,25.75
2022-12-01T20:57:55.905Z,25.74
2022-12-01T21:00:26.553Z,25.73
2022-12-01T21:03:00.069Z,25.71
2022-12-01T21:05:33.616Z,25.66
2022-12-01T21:08:05.563Z,25.62
2022-12-01T21:10:38.508Z,25.56
2022-12-01T21:13:40.271Z,25.50
2022-12-01T21:16:21.444Z,25.45
2022-12-01T21:18:55.909Z,25.40
2022-12-01T21:21:30.384Z,25.39
2022-12-01T21:24:19.142Z,25.36
2022-12-01T21:26:55.911Z,25.34
2022-12-01T21:29:28.923Z,25.31
2022-12-01T21:32:07.243Z,25.29
2022-12-01T21:34:38.082Z,25.28
2022-12-01T21:37:21.196Z,25.26
2022-12-01T21:39:55.407Z,25.23
2022-12-01T21:42:30.142Z,25.20
2022-12-01T21:45:00.660Z,25.16
2022-12-01T21:47:33.778Z,25.14
2022-12-01T21:50:20.244Z,25.12
2022-12-01T21:52:50.830Z,25.09
2022-12-01T21:55:41.550Z,25.08
2022-12-01T21:58:30.557Z,25.08
2022-12-01T22:01:02.407Z,25.06
2022-12-01T22:03:41.477Z,25.07
2022-12-01T22:06:32.210Z,25.07
2022-12-01T22:09:16.945Z,25.07
2022-12-01T22:11:55.431Z,25.07
2022-12-01T22:14:29.612Z,25.07
2022-12-01T22:17:04.528Z,25.07
2022-12-01T22:19:37.176Z,25.06
2022-12-01T22:22:26.293Z,25.07
2022-12-01T22:25:02.137Z,25.06
2022-12-01T22:27:38.166Z,25.07
2022-12-01T22:30:21.315Z,25.06
2022-12-01T22:32:59.563Z,25.06
2022-12-01T22:35:36.474Z,25.06
2022-12-01T22:38:40.917Z,25.04
2022-12-01T22:41:16.148Z,25.03
2022-12-01T22:44:03.127Z,25.03
2022-12-01T22:46:35.783Z,25.02
2022-12-01T22:49:20.538Z,25.01
2022-12-01T22:51:51.893Z,25.00
2022-12-01T22:54:32.463Z,25.00
2022-12-01T22:57:20.196Z,24.99
2022-12-01T22:59:51.924Z,24.96
2022-12-01T23:02:26.190Z,24.93
2022-12-01T23:05:01.721Z,24.91
2022-12-01T23:07:38.588Z,24.90
2022-12-01T23:10:16.615Z,24.88
2022-12-01T23:12:48.751Z,24.88
2022-12-01T23:15:27.670Z,24.88
2022-12-01T23:17:58.378Z,24.84
2022-12-01T23:20:34.573Z,24.83
2022-12-01T23:23:16.394Z,24.82
2022-12-01T23:25:49.662Z,24.80
2022-12-01T23:28:20.572Z,24.79
2022-12-01T23:30:57.319Z,24.79
2022-12-01T23:33:31.589Z,24.78
2022-12-01T23:36:13.804Z,24.77
2022-12-01T23:38:48.145Z,24.75
2022-12-01T23:41:26.024Z,24.74
2022-12-01T23:44:11.806Z,24.72
2022-12-01T23:46:44.700Z,24.71
2022-12-01T23:49:18.970Z,24.71
2022-12-01T23:51:53.308Z,24.69
2022-12-01T23:54:27.888Z,24.70
2022-12-01T23:57:03.353Z,24.70
2022-12-01T23:59:34.999Z,24.69
